Time;durP1;ratioP1;P1;durP2;ratioP2;P2;SDS_P1;SDS_P2;PMS_P1;PMS_P2;Temp;Humidity;BMP_temperature;BMP_pressure;BME280_temperature;BME280_humidity;BME280_pressure;Samples;Min_cycle;Max_cycle;Signal;HPM_P1;HPM_P2
2022/10/01 00:00:22;;;;;;;16.85;15.18;;;10.70;99.90;;;;;;5064125;28;20109;-59
2022/10/01 00:02:48;;;;;;;17.90;15.70;;;10.70;99.90;;;;;;5064765;28;20044;-59
2022/10/01 00:05:14;;;;;;;18.73;16.83;;;10.70;99.90;;;;;;5062499;28;20098;-59
2022/10/01 00:07:42;;;;;;;17.70;16.10;;;10.60;99.90;;;;;;5057042;28;20056;-59
2022/10/01 00:10:09;;;;;;;18.00;16.38;;;10.60;99.90;;;;;;5079650;28;20388;-59
2022/10/01 00:12:36;;;;;;;17.88;16.33;;;10.60;99.90;;;;;;5073815;28;20153;-60
2022/10/01 00:15:08;;;;;;;19.33;17.42;;;10.60;99.90;;;;;;5072696;28;20080;-59
2022/10/01 00:17:35;;;;;;;20.67;18.58;;;10.60;99.90;;;;;;5068265;28;20045;-60
2022/10/01 00:20:02;;;;;;;19.98;18.08;;;10.60;99.90;;;;;;5058821;28;20061;-58
2022/10/01 00:22:32;;;;;;;20.35;18.25;;;10.60;99.90;;;;;;5062472;28;20427;-60
2022/10/01 00:24:58;;;;;;;19.17;17.30;;;10.60;99.90;;;;;;5064601;28;20686;-59
2022/10/01 00:27:25;;;;;;;19.98;17.95;;;10.60;99.90;;;;;;5064165;28;20063;-60
2022/10/01 00:29:51;;;;;;;20.58;18.55;;;10.60;99.90;;;;;;5068052;28;20594;-59
2022/10/01 00:32:17;;;;;;;19.02;17.23;;;10.50;99.90;;;;;;5064804;28;20403;-60
2022/10/01 00:34:44;;;;;;;19.85;17.65;;;10.50;99.90;;;;;;5063759;28;20048;-59
2022/10/01 00:37:10;;;;;;;20.42;18.15;;;10.50;99.90;;;;;;5064213;28;20060;-59
2022/10/01 00:39:36;;;;;;;19.50;17.42;;;10.50;99.90;;;;;;5061327;28;20495;-59
2022/10/01 00:42:12;;;;;;;18.55;16.58;;;10.50;99.90;;;;;;5060127;28;20090;-60
2022/10/01 00:44:39;;;;;;;17.92;16.27;;;10.60;99.90;;;;;;5068746;28;20567;-59
2022/10/01 00:47:30;;;;;;;17.52;15.77;;;10.50;99.90;;;;;;5073373;28;20484;-60
2022/10/01 00:50:05;;;;;;;18.80;16.88;;;10.50;99.90;;;;;;5066456;28;20404;-59
2022/10/01 00:52:38;;;;;;;17.55;15.75;;;10.50;99.90;;;;;;5076835;28;20069;-59
2022/10/01 00:55:11;;;;;;;18.60;16.83;;;10.50;99.90;;;;;;5058679;28;20496;-59
2022/10/01 00:57:55;;;;;;;17.13;15.52;;;10.50;99.90;;;;;;5062481;28;20109;-58
2022/10/01 01:00:22;;;;;;;17.73;15.73;;;10.50;99.90;;;;;;5064162;28;20407;-60
2022/10/01 01:02:48;;;;;;;16.38;14.68;;;10.50;99.90;;;;;;5076158;28;20170;-59
2022/10/01 01:05:14;;;;;;;17.90;16.15;;;10.50;99.90;;;;;;5067589;28;20075;-60
2022/10/01 01:07:44;;;;;;;17.63;15.45;;;10.50;99.90;;;;;;5056639;28;20450;-59
2022/10/01 01:10:13;;;;;;;18.55;16.48;;;10.50;99.90;;;;;;5074166;28;20071;-60
2022/10/01 01:13:24;;;;;;;17.92;16.10;;;10.50;99.90;;;;;;5065459;28;20052;-59
2022/10/01 01:16:06;;;;;;;18.15;16.20;;;10.50;99.90;;;;;;5054469;28;20083;-63
2022/10/01 01:19:04;;;;;;;17.00;15.30;;;10.50;99.90;;;;;;5070448;28;20566;-60
2022/10/01 01:21:44;;;;;;;18.35;16.45;;;10.50;99.90;;;;;;5064311;28;20387;-60
2022/10/01 01:24:42;;;;;;;19.67;17.65;;;10.50;99.90;;;;;;5064638;28;20044;-59
2022/10/01 01:28:08;;;;;;;20.50;16.88;;;10.40;99.90;;;;;;4946135;28;20063;-59
2022/10/01 01:30:37;;;;;;;19.70;17.60;;;10.50;99.90;;;;;;4885544;29;20538;-59
2022/10/01 01:33:16;;;;;;;25.50;19.05;;;10.50;99.90;;;;;;4885959;29;20108;-59
2022/10/01 01:35:50;;;;;;;21.23;19.05;;;10.50;99.90;;;;;;4885914;29;20064;-58
2022/10/01 01:38:32;;;;;;;18.98;17.02;;;10.50;99.90;;;;;;4886053;29;20096;-59
2022/10/01 01:41:00;;;;;;;18.58;16.40;;;10.50;99.90;;;;;;4885834;29;20072;-59
2022/10/01 01:43:32;;;;;;;21.23;17.25;;;10.50;99.90;;;;;;4886140;29;20060;-59
2022/10/01 01:46:00;;;;;;;22.05;18.92;;;10.50;99.90;;;;;;4885155;29;20452;-60
2022/10/01 01:48:28;;;;;;;22.08;18.13;;;10.50;99.90;;;;;;4885633;29;20136;-59
2022/10/01 01:51:37;;;;;;;20.15;18.00;;;10.50;99.90;;;;;;4885733;29;20437;-59
2022/10/01 01:54:03;;;;;;;16.95;15.25;;;10.50;99.90;;;;;;4793951;29;20609;-59
2022/10/01 01:56:30;;;;;;;18.02;16.13;;;10.50;99.90;;;;;;4793785;29;20107;-59
2022/10/01 01:58:58;;;;;;;16.42;14.93;;;10.50;99.90;;;;;;4793938;29;20055;-59
2022/10/01 02:01:50;;;;;;;16.23;14.73;;;10.50;99.90;;;;;;4793563;29;20062;-59
2022/10/01 02:04:52;;;;;;;15.20;12.65;;;10.50;99.90;;;;;;4812358;29;20140;-60
2022/10/01 02:07:41;;;;;;;14.02;12.73;;;10.50;99.90;;;;;;4897237;29;20458;-60
2022/10/01 02:10:38;;;;;;;12.77;11.57;;;10.50;99.90;;;;;;4943015;29;20165;-60
2022/10/01 02:13:23;;;;;;;13.10;11.90;;;10.60;99.90;;;;;;4942134;29;20051;-60
2022/10/01 02:16:10;;;;;;;12.02;10.88;;;10.60;99.90;;;;;;4942175;29;20063;-60
2022/10/01 02:18:49;;;;;;;12.35;11.10;;;10.60;99.90;;;;;;4941682;29;20060;-60
2022/10/01 02:22:13;;;;;;;12.10;11.00;;;10.60;99.90;;;;;;4951770;28;20158;-60
2022/10/01 02:24:55;;;;;;;10.57;9.65;;;10.60;99.90;;;;;;4921230;29;20525;-60
2022/10/01 02:27:46;;;;;;;10.43;9.43;;;10.70;99.90;;;;;;4937178;28;20137;-60
2022/10/01 02:30:14;;;;;;;10.23;9.23;;;10.70;99.90;;;;;;4980271;28;20124;-59
2022/10/01 02:32:44;;;;;;;9.63;8.73;;;10.70;99.90;;;;;;4981326;28;20053;-60
2022/10/01 02:35:13;;;;;;;9.15;8.35;;;10.70;99.90;;;;;;4980040;28;20630;-60
2022/10/01 02:37:41;;;;;;;9.75;8.85;;;10.80;99.90;;;;;;4978073;28;20089;-60
2022/10/01 02:40:14;;;;;;;8.82;8.02;;;10.70;99.90;;;;;;4965071;28;20054;-60
2022/10/01 02:42:49;;;;;;;;;;;10.70;99.90;;;;;;4953740;28;20051;-60
2022/10/01 02:45:21;;;;;;;8.57;7.85;;;10.80;99.90;;;;;;4961592;28;19926;-60
2022/10/01 02:47:53;;;;;;;8.57;7.80;;;10.70;99.90;;;;;;4963344;28;20529;-60
2022/10/01 02:50:21;;;;;;;8.13;7.43;;;10.80;99.90;;;;;;4963606;28;20373;-60
2022/10/01 02:52:54;;;;;;;7.55;6.85;;;10.80;99.90;;;;;;4963735;28;20051;-60
2022/10/01 02:55:27;;;;;;;7.40;6.68;;;10.80;99.90;;;;;;5001801;28;20134;-60
2022/10/01 02:57:54;;;;;;;7.95;7.03;;;10.80;99.90;;;;;;5047019;28;20075;-60
2022/10/01 03:00:22;;;;;;;7.15;6.55;;;10.80;99.90;;;;;;5047304;28;20076;-59
2022/10/01 03:02:49;;;;;;;7.40;6.72;;;10.80;99.90;;;;;;5029402;28;20136;-59
2022/10/01 03:05:15;;;;;;;7.10;6.45;;;10.80;99.90;;;;;;5048559;28;20119;-59
2022/10/01 03:07:42;;;;;;;6.38;5.78;;;10.80;99.90;;;;;;5050165;28;20135;-60
2022/10/01 03:10:09;;;;;;;8.93;6.53;;;10.90;99.90;;;;;;5048619;28;20435;-59
2022/10/01 03:12:35;;;;;;;6.22;5.63;;;10.80;99.90;;;;;;5059026;28;20048;-59
2022/10/01 03:15:01;;;;;;;7.28;5.88;;;10.90;99.90;;;;;;5050671;28;20074;-58
2022/10/01 03:17:27;;;;;;;5.63;4.97;;;10.90;99.90;;;;;;5046850;28;20044;-60
2022/10/01 03:19:53;;;;;;;5.40;4.90;;;10.90;99.90;;;;;;5050066;28;20037;-59
2022/10/01 03:22:23;;;;;;;5.60;5.00;;;10.90;99.90;;;;;;5058223;28;20056;-59
2022/10/01 03:24:52;;;;;;;5.22;4.75;;;10.90;99.90;;;;;;5046833;28;20523;-59
2022/10/01 03:27:19;;;;;;;5.43;4.93;;;11.00;99.90;;;;;;5034577;28;20045;-60
2022/10/01 03:29:48;;;;;;;5.68;5.18;;;10.90;99.90;;;;;;5053178;28;20045;-59
2022/10/01 03:32:14;;;;;;;5.55;5.05;;;10.90;99.90;;;;;;5058620;28;20510;-59
2022/10/01 03:34:40;;;;;;;4.85;4.35;;;10.90;99.90;;;;;;5059355;28;20109;-58
2022/10/01 03:37:07;;;;;;;5.07;4.57;;;10.90;99.90;;;;;;5044370;28;20474;-59
2022/10/01 03:39:33;;;;;;;5.47;5.03;;;11.00;99.90;;;;;;5040566;28;20048;-58
2022/10/01 03:41:59;;;;;;;5.60;5.10;;;10.90;99.90;;;;;;5054229;28;20548;-59
2022/10/01 03:44:24;;;;;;;5.22;4.72;;;11.00;99.90;;;;;;5061349;28;20179;-59
2022/10/01 03:46:50;;;;;;;5.65;4.47;;;11.00;99.90;;;;;;5063050;28;20806;-61
2022/10/01 03:49:16;;;;;;;5.38;4.88;;;11.10;99.90;;;;;;5060011;28;20708;-60
2022/10/01 03:51:44;;;;;;;5.28;4.78;;;11.00;99.90;;;;;;5029529;28;20048;-59
2022/10/01 03:54:09;;;;;;;5.18;4.70;;;11.00;99.90;;;;;;5060353;28;20050;-59
2022/10/01 03:56:36;;;;;;;5.20;4.70;;;11.00;99.90;;;;;;5042382;28;20056;-60
2022/10/01 03:59:02;;;;;;;5.68;5.13;;;11.00;99.90;;;;;;5061613;28;20076;-59
2022/10/01 04:01:29;;;;;;;6.22;5.63;;;11.10;99.90;;;;;;5055970;28;20098;-59
2022/10/01 04:03:55;;;;;;;6.72;6.13;;;11.10;99.90;;;;;;5060791;28;20048;-59
2022/10/01 04:06:20;;;;;;;6.82;6.22;;;11.00;99.90;;;;;;5056467;28;20041;-59
2022/10/01 04:08:46;;;;;;;6.50;5.97;;;11.00;99.90;;;;;;5068643;28;20037;-59
2022/10/01 04:11:12;;;;;;;7.28;6.60;;;11.10;99.90;;;;;;5058534;28;20048;-59
2022/10/01 04:13:38;;;;;;;6.32;5.82;;;11.00;99.90;;;;;;5070355;28;20406;-60
2022/10/01 04:16:05;;;;;;;6.70;6.10;;;11.10;99.90;;;;;;5056970;28;20052;-59
2022/10/01 04:18:32;;;;;;;7.25;6.65;;;11.10;99.90;;;;;;5060711;28;20059;-60
2022/10/01 04:20:58;;;;;;;6.90;6.20;;;11.10;99.90;;;;;;5069155;28;20066;-59
2022/10/01 04:23:24;;;;;;;6.95;6.35;;;11.20;99.90;;;;;;5050829;28;20503;-59
2022/10/01 04:25:50;;;;;;;7.35;6.72;;;11.20;99.90;;;;;;5070131;28;20048;-59
2022/10/01 04:28:15;;;;;;;7.88;7.18;;;11.20;99.90;;;;;;5061500;28;20055;-60
2022/10/01 04:30:43;;;;;;;7.78;7.07;;;11.20;99.90;;;;;;5062041;28;20562;-59
2022/10/01 04:33:15;;;;;;;8.43;7.72;;;11.20;99.90;;;;;;5070536;28;20053;-59
2022/10/01 04:35:42;;;;;;;7.45;6.65;;;11.20;99.90;;;;;;5068380;28;20513;-60
2022/10/01 04:38:15;;;;;;;8.98;8.18;;;11.20;99.90;;;;;;5041045;28;20577;-60
2022/10/01 04:40:41;;;;;;;9.00;8.20;;;11.20;99.90;;;;;;5063283;28;20130;-59
2022/10/01 04:43:09;;;;;;;9.10;8.32;;;11.20;99.90;;;;;;5050311;28;20068;-60
2022/10/01 04:45:36;;;;;;;8.20;7.50;;;11.30;99.90;;;;;;5057201;28;20064;-59
2022/10/01 04:48:02;;;;;;;9.38;8.50;;;11.30;99.90;;;;;;5077390;28;20052;-59
2022/10/01 04:50:28;;;;;;;8.50;7.78;;;11.30;99.90;;;;;;5058965;28;20561;-60
2022/10/01 04:52:54;;;;;;;10.18;9.23;;;11.30;99.90;;;;;;5064106;28;20044;-60
2022/10/01 04:55:21;;;;;;;10.23;9.27;;;11.40;99.90;;;;;;5059787;28;20045;-59
2022/10/01 04:57:47;;;;;;;11.77;10.73;;;11.50;99.90;;;;;;5061610;28;20048;-61
2022/10/01 05:00:16;;;;;;;11.02;10.02;;;11.50;99.90;;;;;;5057825;28;20103;-60
2022/10/01 05:02:44;;;;;;;10.93;10.00;;;11.50;99.90;;;;;;5062715;28;20079;-60
2022/10/01 05:05:10;;;;;;;10.60;9.65;;;11.50;99.90;;;;;;5055552;28;20059;-60
2022/10/01 05:07:38;;;;;;;10.63;9.20;;;11.60;99.90;;;;;;5059586;28;20056;-60
2022/10/01 05:10:05;;;;;;;10.55;9.75;;;11.60;99.90;;;;;;5067561;28;20041;-60
2022/10/01 05:12:30;;;;;;;10.27;9.27;;;11.70;99.90;;;;;;5035054;28;20053;-60
2022/10/01 05:14:56;;;;;;;12.25;11.20;;;11.70;99.90;;;;;;5053564;28;20387;-61
2022/10/01 05:17:22;;;;;;;12.68;11.48;;;11.60;99.90;;;;;;5069037;28;20137;-63
2022/10/01 05:19:49;;;;;;;14.00;12.80;;;11.70;99.90;;;;;;5059390;28;20461;-60
2022/10/01 05:22:15;;;;;;;12.43;11.05;;;11.70;99.90;;;;;;5069009;28;20056;-61
2022/10/01 05:24:42;;;;;;;12.32;11.05;;;11.70;99.90;;;;;;5039956;28;20472;-61
2022/10/01 05:27:12;;;;;;;14.23;12.70;;;11.70;99.90;;;;;;5035511;28;20061;-61
2022/10/01 05:29:39;;;;;;;15.55;13.93;;;11.80;99.90;;;;;;5074876;28;20123;-61
2022/10/01 05:32:10;;;;;;;16.92;14.60;;;11.80;99.90;;;;;;5069086;28;20048;-61
2022/10/01 05:34:37;;;;;;;14.63;13.15;;;11.80;99.90;;;;;;5058978;28;20488;-61
2022/10/01 05:37:08;;;;;;;14.02;12.52;;;11.80;99.90;;;;;;5072747;28;20507;-61
2022/10/01 05:39:34;;;;;;;15.27;13.18;;;11.80;99.90;;;;;;5073590;28;20052;-61
2022/10/01 05:42:01;;;;;;;13.63;12.23;;;11.80;99.90;;;;;;5056181;28;20064;-60
2022/10/01 05:44:27;;;;;;;16.33;14.20;;;11.80;99.90;;;;;;5080241;28;20085;-60
2022/10/01 05:46:53;;;;;;;16.80;14.00;;;11.90;99.90;;;;;;5064496;28;20043;-60
2022/10/01 05:49:23;;;;;;;15.05;13.75;;;12.00;99.90;;;;;;5084528;28;20060;-60
2022/10/01 05:51:49;;;;;;;15.52;13.93;;;11.90;99.90;;;;;;5074612;28;20144;-60
2022/10/01 05:54:18;;;;;;;17.55;14.20;;;12.00;99.90;;;;;;5062810;28;20475;-60
2022/10/01 05:56:44;;;;;;;15.38;13.82;;;11.90;99.90;;;;;;5060605;28;20578;-60
2022/10/01 05:59:10;;;;;;;14.48;12.98;;;12.00;99.90;;;;;;5079785;28;20048;-60
2022/10/01 06:01:45;;;;;;;16.73;14.00;;;12.00;99.90;;;;;;5075416;28;20052;-60
2022/10/01 06:04:11;;;;;;;15.30;13.43;;;12.10;99.90;;;;;;5071616;28;20123;-61
2022/10/01 06:06:37;;;;;;;15.20;13.63;;;12.10;99.90;;;;;;5043246;28;20062;-60
2022/10/01 06:09:03;;;;;;;15.05;13.05;;;12.10;99.90;;;;;;5063557;28;20102;-61
2022/10/01 06:11:34;;;;;;;15.30;12.48;;;12.10;99.90;;;;;;5063647;28;20047;-61
2022/10/01 06:13:59;;;;;;;13.38;11.98;;;12.10;99.90;;;;;;5054350;28;20098;-59
2022/10/01 06:16:25;;;;;;;15.23;11.32;;;12.10;99.90;;;;;;5059456;28;20537;-61
2022/10/01 06:18:56;;;;;;;15.27;11.65;;;12.20;99.90;;;;;;5070704;28;20052;-60
2022/10/01 06:21:25;;;;;;;11.27;10.18;;;12.20;99.90;;;;;;5057998;28;20124;-60
2022/10/01 06:23:54;;;;;;;14.60;10.13;;;12.20;99.90;;;;;;5050724;28;20509;-62
2022/10/01 06:26:23;;;;;;;10.13;9.10;;;12.30;99.90;;;;;;5070308;28;20154;-62
2022/10/01 06:28:50;;;;;;;16.23;9.32;;;12.30;99.90;;;;;;5052740;28;20053;-60
2022/10/01 06:31:17;;;;;;;15.13;9.25;;;12.30;99.90;;;;;;5066677;28;20132;-60
2022/10/01 06:33:43;;;;;;;15.93;9.10;;;12.40;99.90;;;;;;5079581;28;20047;-61
2022/10/01 06:36:08;;;;;;;15.88;8.93;;;12.40;99.90;;;;;;5068882;28;20121;-60
2022/10/01 06:38:41;;;;;;;12.63;8.13;;;12.40;99.90;;;;;;5064278;28;20041;-61
2022/10/01 06:41:09;;;;;;;19.92;9.43;;;12.50;99.90;;;;;;5058230;28;20107;-61
2022/10/01 06:43:35;;;;;;;16.88;8.88;;;12.50;99.90;;;;;;5044445;28;20519;-61
2022/10/01 06:46:03;;;;;;;16.17;8.75;;;12.50;99.90;;;;;;5043636;28;20478;-60
2022/10/01 06:48:31;;;;;;;16.42;8.20;;;12.50;99.90;;;;;;5040460;28;20076;-60
2022/10/01 06:50:57;;;;;;;13.50;4.20;;;12.50;99.90;;;;;;5043871;28;20048;-60
2022/10/01 06:53:24;;;;;;;12.77;3.83;;;12.60;99.90;;;;;;5044474;28;20041;-60
2022/10/01 06:55:49;;;;;;;10.50;4.40;;;12.70;99.90;;;;;;5042763;28;20051;-60
2022/10/01 06:58:20;;;;;;;11.93;4.50;;;12.70;99.90;;;;;;5042677;28;20474;-60
2022/10/01 07:00:47;;;;;;;9.13;3.63;;;12.70;99.90;;;;;;5043730;28;20076;-60
2022/10/01 07:03:15;;;;;;;15.45;3.88;;;12.60;99.90;;;;;;5042966;28;20167;-60
2022/10/01 07:05:44;;;;;;;12.98;3.70;;;12.60;99.90;;;;;;5044860;28;20087;-59
2022/10/01 07:08:10;;;;;;;10.05;2.85;;;12.60;99.90;;;;;;5043298;28;20062;-60
2022/10/01 07:10:36;;;;;;;11.00;4.07;;;12.60;99.90;;;;;;5042814;28;20052;-60
2022/10/01 07:13:19;;;;;;;12.07;2.60;;;12.60;99.90;;;;;;5042395;28;20246;-61
2022/10/01 07:15:45;;;;;;;10.43;2.88;;;12.60;99.90;;;;;;5044522;28;20049;-60
2022/10/01 07:18:12;;;;;;;12.60;3.03;;;12.50;99.90;;;;;;5045249;28;20063;-60
2022/10/01 07:20:39;;;;;;;10.93;3.20;;;12.50;99.90;;;;;;5042836;28;20486;-60
2022/10/01 07:23:10;;;;;;;17.40;4.25;;;12.40;99.90;;;;;;5043849;28;20045;-60
2022/10/01 07:25:37;;;;;;;10.77;3.20;;;12.40;99.90;;;;;;5041252;28;20052;-60
2022/10/01 07:28:05;;;;;;;15.27;4.50;;;12.40;99.90;;;;;;5046613;28;20545;-60
2022/10/01 07:30:31;;;;;;;14.95;6.63;;;12.40;99.90;;;;;;5044511;28;20052;-61
2022/10/01 07:32:57;;;;;;;13.25;4.85;;;12.80;99.90;;;;;;5047174;28;20041;-60
2022/10/01 07:35:23;;;;;;;15.38;5.10;;;13.20;99.90;;;;;;5046929;28;20063;-60
2022/10/01 07:37:50;;;;;;;15.23;6.15;;;13.40;99.90;;;;;;5040435;28;20483;-61
2022/10/01 07:40:17;;;;;;;15.98;4.72;;;13.70;99.90;;;;;;5025786;28;20067;-61
2022/10/01 07:42:53;;;;;;;15.30;4.95;;;14.00;99.90;;;;;;5042497;28;20061;-61
2022/10/01 07:45:20;;;;;;;20.30;6.03;;;14.10;99.90;;;;;;5049342;28;20052;-61
2022/10/01 07:47:57;;;;;;;16.90;4.70;;;14.30;99.90;;;;;;5059612;28;20057;-61
2022/10/01 07:50:24;;;;;;;23.23;4.68;;;14.60;99.90;;;;;;5056427;28;20127;-61
2022/10/01 07:52:55;;;;;;;21.80;4.25;;;14.90;99.90;;;;;;5059964;28;20044;-61
2022/10/01 07:55:22;;;;;;;17.60;4.40;;;15.00;99.90;;;;;;5054828;28;20063;-62
2022/10/01 07:57:56;;;;;;;19.10;4.80;;;15.30;99.90;;;;;;5058216;28;20428;-61
2022/10/01 08:00:23;;;;;;;15.63;3.65;;;15.50;99.90;;;;;;5052893;28;20051;-61
2022/10/01 08:02:52;;;;;;;18.55;3.65;;;15.60;99.90;;;;;;5053854;28;20094;-61
2022/10/01 08:05:20;;;;;;;19.65;4.05;;;15.60;99.90;;;;;;5052263;28;20578;-61
2022/10/01 08:07:48;;;;;;;15.93;3.10;;;15.60;99.90;;;;;;5045976;28;20052;-60
2022/10/01 08:10:16;;;;;;;16.25;3.85;;;15.60;99.90;;;;;;5039856;28;20220;-61
2022/10/01 08:12:42;;;;;;;19.67;3.92;;;15.70;99.90;;;;;;5045725;28;20038;-61
2022/10/01 08:15:10;;;;;;;17.50;3.92;;;15.80;99.90;;;;;;5043593;28;20160;-61
2022/10/01 08:17:37;;;;;;;21.25;4.30;;;15.90;99.90;;;;;;5037915;28;20045;-62
2022/10/01 08:20:04;;;;;;;15.40;4.13;;;16.00;99.90;;;;;;5055932;28;20250;-62
2022/10/01 08:22:30;;;;;;;19.30;3.25;;;16.00;99.90;;;;;;5050077;28;20074;-61
2022/10/01 08:24:59;;;;;;;16.10;5.15;;;16.10;99.90;;;;;;5045736;28;20052;-62
2022/10/01 08:27:26;;;;;;;18.13;3.92;;;16.10;99.90;;;;;;5057171;28;20131;-60
2022/10/01 08:29:52;;;;;;;18.38;4.32;;;16.10;99.90;;;;;;5049563;28;20111;-61
2022/10/01 08:32:18;;;;;;;18.90;4.10;;;15.90;99.90;;;;;;5045158;28;20496;-61
2022/10/01 08:34:45;;;;;;;12.25;3.60;;;15.80;99.90;;;;;;5044599;28;20049;-62
2022/10/01 08:37:11;;;;;;;18.00;4.22;;;15.90;99.90;;;;;;5026841;28;20041;-61
2022/10/01 08:39:37;;;;;;;13.18;3.00;;;15.90;99.90;;;;;;5044795;28;20127;-62
2022/10/01 08:42:39;;;;;;;15.23;2.90;;;15.90;99.90;;;;;;5044379;28;20075;-63
2022/10/01 08:45:15;;;;;;;11.70;3.53;;;15.80;99.90;;;;;;5045071;28;21174;-62
2022/10/01 08:47:45;;;;;;;12.77;2.72;;;15.70;99.90;;;;;;5046816;28;20059;-62
2022/10/01 08:50:53;;;;;;;13.00;3.58;;;15.80;99.90;;;;;;5047706;28;20052;-62
2022/10/01 08:53:34;;;;;;;9.90;2.15;;;15.90;99.90;;;;;;4944462;29;20151;-62
2022/10/01 08:56:01;;;;;;;12.88;2.70;;;16.10;99.90;;;;;;4928332;29;20063;-61
2022/10/01 08:58:40;;;;;;;9.25;2.05;;;16.10;99.90;;;;;;4943574;29;20051;-62
2022/10/01 09:01:05;;;;;;;9.30;2.35;;;15.90;99.90;;;;;;4942966;29;20066;-62
2022/10/01 09:03:32;;;;;;;10.88;2.03;;;15.60;99.90;;;;;;4926357;28;20059;-61
2022/10/01 09:06:24;;;;;;;5.60;1.90;;;15.40;99.90;;;;;;4916396;29;20055;-63
2022/10/01 09:09:09;;;;;;;11.07;2.60;;;15.20;99.90;;;;;;4925471;29;20081;-63
2022/10/01 09:11:47;;;;;;;11.18;2.30;;;15.10;99.90;;;;;;4935335;29;20105;-62
2022/10/01 09:14:34;;;;;;;9.75;2.20;;;15.10;99.90;;;;;;4922977;29;20051;-62
2022/10/01 09:17:38;;;;;;;6.28;2.20;;;15.00;99.90;;;;;;4937364;29;20110;-61
2022/10/01 09:20:22;;;;;;;8.93;2.20;;;14.90;99.90;;;;;;4931551;29;20400;-62
2022/10/01 09:23:07;;;;;;;8.23;2.40;;;14.80;99.90;;;;;;4942631;29;20063;-62
2022/10/01 09:25:35;;;;;;;9.93;2.42;;;14.80;99.90;;;;;;4939871;29;20438;-62
2022/10/01 09:28:32;;;;;;;10.30;2.33;;;14.90;99.90;;;;;;4938775;29;20089;-62
2022/10/01 09:31:13;;;;;;;7.38;2.30;;;14.70;99.90;;;;;;5024811;28;20072;-63
2022/10/01 09:33:49;;;;;;;7.35;2.10;;;14.70;99.90;;;;;;5011778;28;20053;-62
2022/10/01 09:36:47;;;;;;;10.25;2.47;;;14.60;99.90;;;;;;5013468;28;20140;-62
2022/10/01 09:39:41;;;;;;;10.20;2.53;;;14.70;99.90;;;;;;4933198;28;20059;-62
2022/10/01 09:42:07;;;;;;;;;;;14.80;99.90;;;;;;4965865;28;20141;-62
2022/10/01 09:44:33;;;;;;;11.32;2.55;;;14.90;99.90;;;;;;4985508;28;19937;-62
2022/10/01 09:46:59;;;;;;;7.05;2.35;;;15.00;99.90;;;;;;4977285;28;20064;-62
2022/10/01 09:49:35;;;;;;;12.60;2.90;;;15.10;99.90;;;;;;4959161;28;20127;-62
2022/10/01 09:52:13;;;;;;;12.18;2.92;;;15.10;99.90;;;;;;4983048;28;20065;-61
2022/10/01 09:54:45;;;;;;;13.90;3.45;;;15.00;99.90;;;;;;4980254;28;20140;-59
2022/10/01 09:57:53;;;;;;;17.08;3.30;;;14.80;99.90;;;;;;4979920;28;20534;-61
2022/10/01 10:00:21;;;;;;;15.40;3.08;;;14.70;99.90;;;;;;4955183;28;20128;-61
2022/10/01 10:02:49;;;;;;;23.77;3.85;;;14.50;99.90;;;;;;4954367;28;20118;-60
2022/10/01 10:05:18;;;;;;;20.05;3.67;;;14.30;99.90;;;;;;4955007;28;20063;-60
2022/10/01 10:08:09;;;;;;;14.40;2.47;;;13.90;99.90;;;;;;4938399;29;20055;-61
2022/10/01 10:10:38;;;;;;;6.82;2.10;;;13.40;99.90;;;;;;4950855;28;20057;-60
2022/10/01 10:13:20;;;;;;;10.55;2.92;;;13.10;99.90;;;;;;4952407;28;20116;-60
2022/10/01 10:15:51;;;;;;;6.43;1.70;;;12.90;99.90;;;;;;4956656;28;20422;-60
2022/10/01 10:18:26;;;;;;;7.38;1.75;;;12.80;99.90;;;;;;4976062;28;20066;-60
2022/10/01 10:20:53;;;;;;;7.07;2.08;;;12.80;99.90;;;;;;4980157;28;20065;-60
2022/10/01 10:23:28;;;;;;;6.32;1.58;;;12.70;99.90;;;;;;4970892;28;20198;-60
2022/10/01 10:26:02;;;;;;;15.65;2.13;;;12.80;99.90;;;;;;4966324;28;20097;-60
2022/10/01 10:28:39;;;;;;;8.38;2.63;;;12.80;99.90;;;;;;4968201;28;20061;-60
2022/10/01 10:31:14;;;;;;;11.70;2.22;;;12.80;99.90;;;;;;4977051;28;20062;-60
2022/10/01 10:34:11;;;;;;;11.88;2.40;;;12.70;99.90;;;;;;4977412;28;20089;-60
2022/10/01 10:36:39;;;;;;;9.98;2.45;;;12.80;99.90;;;;;;4990719;28;20053;-60
2022/10/01 10:39:17;;;;;;;9.20;2.90;;;12.80;99.90;;;;;;5037300;28;20057;-60
2022/10/01 10:41:47;;;;;;;14.55;3.50;;;12.90;99.90;;;;;;5045518;28;20516;-60
2022/10/01 10:44:18;;;;;;;18.27;3.88;;;13.00;99.90;;;;;;5058381;28;20106;-61
2022/10/01 10:46:44;;;;;;;12.50;2.80;;;13.10;99.90;;;;;;5041619;28;20475;-60
2022/10/01 10:49:31;;;;;;;8.45;2.47;;;13.20;99.90;;;;;;5056236;28;20052;-61
2022/10/01 10:51:59;;;;;;;15.00;3.55;;;13.30;99.90;;;;;;5058013;28;20617;-60
2022/10/01 10:54:36;;;;;;;15.15;5.22;;;13.30;99.90;;;;;;5060270;28;20040;-60
2022/10/01 10:57:31;;;;;;;17.80;3.95;;;13.60;99.90;;;;;;5064419;28;20045;-61
2022/10/01 11:00:15;;;;;;;16.90;3.40;;;13.80;99.90;;;;;;5061582;28;20413;-61
2022/10/01 11:02:58;;;;;;;18.98;3.80;;;13.90;99.90;;;;;;5053246;28;20045;-60
2022/10/01 11:05:30;;;;;;;13.80;3.25;;;14.10;99.90;;;;;;5039485;28;20107;-61
2022/10/01 11:07:59;;;;;;;16.05;3.67;;;14.20;99.90;;;;;;5056429;28;20059;-62
2022/10/01 11:10:44;;;;;;;13.60;3.05;;;14.30;99.90;;;;;;5060245;28;20067;-62
2022/10/01 11:13:38;;;;;;;17.83;3.72;;;14.50;99.90;;;;;;5040819;28;20063;-61
2022/10/01 11:16:27;;;;;;;12.25;3.38;;;14.70;99.90;;;;;;5060092;28;20044;-62
2022/10/01 11:19:34;;;;;;;14.40;3.80;;;14.90;99.90;;;;;;5066138;28;20124;-61
2022/10/01 11:22:29;;;;;;;17.67;4.07;;;15.40;99.90;;;;;;5027895;28;20588;-61
2022/10/01 11:25:09;;;;;;;16.90;4.35;;;15.50;99.90;;;;;;5046840;28;20053;-62
2022/10/01 11:28:03;;;;;;;15.80;3.22;;;15.50;99.90;;;;;;5028580;28;20049;-62
2022/10/01 11:30:37;;;;;;;14.43;3.25;;;15.60;99.90;;;;;;4946056;28;20063;-62
2022/10/01 11:33:26;;;;;;;11.52;3.15;;;15.50;99.90;;;;;;4947236;28;20142;-62
2022/10/01 11:36:09;;;;;;;15.95;3.67;;;15.60;99.90;;;;;;4960948;28;20063;-62
2022/10/01 11:38:59;;;;;;;11.75;2.78;;;15.60;99.90;;;;;;4953482;28;20115;-61
2022/10/01 11:41:39;;;;;;;13.77;3.05;;;15.50;99.90;;;;;;4976038;28;20735;-61
2022/10/01 11:44:12;;;;;;;16.48;3.72;;;15.40;99.90;;;;;;4963721;28;20097;-62
2022/10/01 11:47:01;;;;;;;12.95;3.08;;;15.50;99.90;;;;;;4958918;28;20043;-62
2022/10/01 11:49:56;;;;;;;12.98;2.70;;;15.70;99.90;;;;;;4966599;28;20049;-62
2022/10/01 11:52:52;;;;;;;12.20;2.67;;;15.80;99.90;;;;;;4963967;28;20145;-62
2022/10/01 12:01:05;;;;;;;13.77;3.05;;;15.10;99.90;;;;;;4964119;28;20055;-61
2022/10/01 12:03:44;;;;;;;14.13;2.75;;;14.90;99.90;;;;;;4970631;28;20503;-62
2022/10/01 12:06:13;;;;;;;15.10;3.15;;;14.80;99.90;;;;;;4972186;28;20050;-61
2022/10/01 12:08:47;;;;;;;13.25;2.97;;;14.80;99.90;;;;;;5060779;28;20523;-62
2022/10/01 12:11:26;;;;;;;13.70;3.40;;;14.80;99.90;;;;;;5045695;28;20064;-61
2022/10/01 12:14:00;;;;;;;13.50;3.47;;;14.70;99.90;;;;;;5055074;28;20049;-62
2022/10/01 12:16:46;;;;;;;12.00;3.55;;;14.80;99.90;;;;;;5043681;28;20060;-62
2022/10/01 12:19:52;;;;;;;14.00;4.75;;;14.90;99.90;;;;;;5055219;28;20041;-62
2022/10/01 12:22:38;;;;;;;15.57;3.70;;;15.00;99.90;;;;;;4993593;28;20053;-61
2022/10/01 12:25:09;;;;;;;13.07;3.58;;;15.20;99.90;;;;;;5006973;28;20135;-61
2022/10/01 12:27:46;;;;;;;15.80;3.47;;;15.30;99.90;;;;;;5022287;28;20059;-61
2022/10/01 12:30:20;;;;;;;12.52;3.08;;;15.40;99.90;;;;;;4999002;28;20452;-62
2022/10/01 12:33:34;;;;;;;16.35;3.05;;;15.60;99.90;;;;;;5000770;28;20144;-61
2022/10/01 12:36:05;;;;;;;13.30;3.05;;;15.60;99.90;;;;;;4966705;28;20054;-61
2022/10/01 12:38:53;;;;;;;13.82;4.20;;;15.60;99.90;;;;;;4948098;28;20489;-61
2022/10/01 12:41:33;;;;;;;10.55;3.13;;;15.70;99.90;;;;;;4930954;28;20230;-62
2022/10/01 12:44:36;;;;;;;15.32;2.85;;;15.90;99.90;;;;;;4934772;28;20150;-61
2022/10/01 12:47:37;;;;;;;14.82;4.07;;;16.20;99.90;;;;;;4909953;29;20415;-62
2022/10/01 12:50:18;;;;;;;13.23;2.63;;;16.40;99.90;;;;;;4884620;29;20510;-61
2022/10/01 12:53:19;;;;;;;12.77;3.22;;;16.20;99.90;;;;;;4903151;29;20056;-61
2022/10/01 12:55:52;;;;;;;10.98;2.20;;;16.00;99.90;;;;;;4924352;29;20458;-62
2022/10/01 12:58:24;;;;;;;;;;;15.60;99.90;;;;;;4919361;29;21190;-61
2022/10/01 13:01:04;;;;;;;8.52;2.55;;;15.40;99.90;;;;;;4929677;29;19974;-62
2022/10/01 13:03:47;;;;;;;13.05;2.63;;;15.10;99.90;;;;;;4923653;29;20055;-62
2022/10/01 13:06:13;;;;;;;;;;;14.90;99.90;;;;;;4925968;29;20112;-61
2022/10/01 13:09:00;;;;;;;11.52;3.03;;;14.80;99.90;;;;;;4929341;29;19930;-62
2022/10/01 13:11:57;;;;;;;14.52;2.80;;;14.80;99.90;;;;;;4925770;28;20135;-62
2022/10/01 13:14:23;;;;;;;14.63;2.92;;;15.00;99.90;;;;;;4989101;28;20481;-63
2022/10/01 13:17:33;;;;;;;13.77;3.20;;;15.00;99.90;;;;;;4993785;28;20088;-61